Terminal Aerodrome Forecast
Issued by NWS

Home | Current Version | Previous Version | Graphics & Text | Print | Product List | Glossary On
Versions: 1 2 3 4 5 6 7 8 9 10 11 12
000
FTUS45 KGGW 221720
TAFGDV
TAF
KGDV 221720Z 2218/2318 18009KT P6SM BKN035
     FM222100 24007KT P6SM BKN060
     FM222200 VRB06KT P6SM SCT070
     FM231200 30005KT P6SM VCSH BKN070=

USA.gov is the U.S. government's official web portal to all federal, state and local government web resources and services.